Item Display Status Serial CT Sensor

Mooring Depth: 1 m

 

Deployed Sensor

  • Serial Number: 3293
  • NDBC Property Number: 23969
  • Start Date: 11/19/2018 (12:58:34 Z)
  • End Date: Currently Active
Water Temperature [°C]     6 entries per hour
Showing data from 8/26/2019 (22:50:00 Z) to 8/25/2019 (00:00:01 Z)
Previous Next [ Day | 3-Days | 7-Days ]
First Last
Prev [ Day | 3-Days | 7-Days ] Next
First Last

Start Time:     :
End Time:     :     
Time (in GMT) :00 :50 :40 :30 :20 :10
Previous Next [ Day | 3-Days | 7-Days ]
First Last
Prev [ Day | 3-Days | 7-Days ] Next
First Last


123 => good data
MM => data is determined as missing
-- => data not received/configured
Back to Top Back to Top
8/26/2019 23:00 to 22:10 -- 20.757 20.803 20.821 20.819 20.911
8/26/2019 22:00 to 21:10 20.829 20.873 20.869 20.820 20.915 20.918
8/26/2019 21:00 to 20:10 20.917 20.884 20.871 20.865 20.839 20.788
8/26/2019 20:00 to 19:10 20.757 20.698 20.744 20.670 20.692 20.671
8/26/2019 19:00 to 18:10 20.623 20.631 20.630 20.616 20.637 20.591
8/26/2019 18:00 to 17:10 20.557 20.608 20.587 20.540 20.470 20.512
8/26/2019 17:00 to 16:10 20.450 20.450 20.462 20.423 20.400 20.407
8/26/2019 16:00 to 15:10 20.389 20.380 20.392 20.359 20.353 20.338
8/26/2019 15:00 to 14:10 20.332 20.340 20.301 20.296 20.303 20.304
8/26/2019 14:00 to 13:10 20.301 20.298 20.297 20.303 20.304 20.308
8/26/2019 13:00 to 12:10 20.315 20.320 20.323 20.319 20.318 20.316
8/26/2019 12:00 to 11:10 20.320 20.312 20.322 20.328 20.328 20.327
8/26/2019 11:00 to 10:10 20.333 20.335 20.343 20.345 20.351 20.359
8/26/2019 10:00 to 9:10 20.367 20.369 20.364 20.369 20.363 20.365
8/26/2019 09:00 to 8:10 20.366 20.378 20.381 20.382 20.375 20.376
8/26/2019 08:00 to 7:10 20.383 20.385 20.382 20.374 20.383 20.383
8/26/2019 07:00 to 6:10 20.376 20.368 20.374 20.379 20.371 20.372
8/26/2019 06:00 to 5:10 20.382 20.384 20.390 20.372 20.374 20.376
8/26/2019 05:00 to 4:10 20.394 20.409 20.405 20.401 20.395 20.396
8/26/2019 04:00 to 3:10 20.400 20.402 20.399 20.412 20.421 20.427
8/26/2019 03:00 to 2:10 20.418 20.419 20.420 20.426 20.423 20.442
8/26/2019 02:00 to 1:10 20.471 20.467 20.495 20.508 20.505 20.523
8/26/2019 01:00 to 0:10 20.516 20.542 20.446 20.486 20.542 20.578
8/26/2019 00:00 to 23:10 20.590 20.609 20.591 20.608 20.584 20.619
8/25/2019 23:00 to 22:10 20.647 20.643 20.620 20.631 20.635 20.653
8/25/2019 22:00 to 21:10 20.644 20.651 20.637 20.639 20.603 20.643
8/25/2019 21:00 to 20:10 20.665 20.608 20.600 20.635 20.620 20.608
8/25/2019 20:00 to 19:10 20.631 20.637 20.598 20.585 20.587 20.575
8/25/2019 19:00 to 18:10 20.538 20.500 20.528 20.481 20.488 20.468
8/25/2019 18:00 to 17:10 20.431 20.416 20.388 20.384 20.363 20.363
8/25/2019 17:00 to 16:10 20.351 20.342 20.347 20.356 20.353 20.335
8/25/2019 16:00 to 15:10 20.314 20.328 20.307 20.311 20.287 20.294
8/25/2019 15:00 to 14:10 20.288 20.263 20.284 20.270 20.265 20.255
8/25/2019 14:00 to 13:10 20.255 20.250 20.254 20.251 20.255 20.248
8/25/2019 13:00 to 12:10 20.259 20.260 20.264 20.268 20.270 20.267
8/25/2019 12:00 to 11:10 20.274 20.274 20.272 20.276 20.276 20.279
8/25/2019 11:00 to 10:10 20.281 20.280 20.294 20.294 20.292 20.290
8/25/2019 10:00 to 9:10 20.302 20.309 20.305 20.308 20.311 20.319
8/25/2019 09:00 to 8:10 20.315 20.316 20.322 20.325 20.313 20.314
8/25/2019 08:00 to 7:10 20.305 20.290 20.297 20.299 20.314 20.325
8/25/2019 07:00 to 6:10 20.327 20.320 20.324 20.320 20.319 20.332
8/25/2019 06:00 to 5:10 20.341 20.349 20.369 20.368 20.377 20.397
8/25/2019 05:00 to 4:10 20.403 20.385 20.407 20.413 20.414 20.396
8/25/2019 04:00 to 3:10 20.406 20.414 20.406 20.409 20.409 20.417
8/25/2019 03:00 to 2:10 20.409 20.428 20.436 20.429 20.431 20.400
8/25/2019 02:00 to 1:10 20.409 20.429 20.397 20.390 20.409 20.433
8/25/2019 01:00 to 0:10 20.424 20.410 20.419 20.408 20.430 20.427

 

 

 

Conductivity [S/m]     6 entries per hour
Showing data from 8/26/2019 (22:50:00 Z) to 8/25/2019 (00:00:01 Z)
Previous Next [ Day | 3-Days | 7-Days ]
First Last
Prev [ Day | 3-Days | 7-Days ] Next
First Last

Start Time:     :
End Time:     :     
Time (in GMT) :00 :50 :40 :30 :20 :10
Previous Next [ Day | 3-Days | 7-Days ]
First Last
Prev [ Day | 3-Days | 7-Days ] Next
First Last


123 => good data
MM => data is determined as missing
-- => data not received/configured
Back to Top Back to Top
8/26/2019 23:00 to 22:10 -- 4.87511 4.88047 4.88215 4.88149 4.89099
8/26/2019 22:00 to 21:10 4.88240 4.88749 4.88694 4.88182 4.89116 4.89172
8/26/2019 21:00 to 20:10 4.89204 4.88948 4.88780 4.88551 4.88320 4.87957
8/26/2019 20:00 to 19:10 4.87516 4.86898 4.87443 4.86655 4.86888 4.86663
8/26/2019 19:00 to 18:10 4.86123 4.86298 4.86251 4.86016 4.86298 4.85827
8/26/2019 18:00 to 17:10 4.85488 4.85941 4.85789 4.85401 4.84677 4.85030
8/26/2019 17:00 to 16:10 4.84396 4.84418 4.84535 4.84215 4.83870 4.83966
8/26/2019 16:00 to 15:10 4.83755 4.83686 4.83817 4.83461 4.83389 4.83255
8/26/2019 15:00 to 14:10 4.83176 4.83260 4.82856 4.82804 4.82879 4.82896
8/26/2019 14:00 to 13:10 4.82871 4.82842 4.82827 4.82884 4.82901 4.82948
8/26/2019 13:00 to 12:10 4.83010 4.83064 4.83089 4.83042 4.83047 4.83027
8/26/2019 12:00 to 11:10 4.83044 4.82978 4.83062 4.83141 4.83146 4.83138
8/26/2019 11:00 to 10:10 4.83208 4.83213 4.83294 4.83314 4.83386 4.83461
8/26/2019 10:00 to 9:10 4.83542 4.83567 4.83513 4.83552 4.83500 4.83532
8/26/2019 09:00 to 8:10 4.83532 4.83644 4.83691 4.83689 4.83629 4.83641
8/26/2019 08:00 to 7:10 4.83708 4.83726 4.83711 4.83624 4.83701 4.83711
8/26/2019 07:00 to 6:10 4.83634 4.83550 4.83607 4.83659 4.83567 4.83594
8/26/2019 06:00 to 5:10 4.83679 4.83696 4.83768 4.83570 4.83589 4.83619
8/26/2019 05:00 to 4:10 4.83803 4.83937 4.83902 4.83860 4.83817 4.83827
8/26/2019 04:00 to 3:10 4.83837 4.83879 4.83850 4.83976 4.84073 4.84113
8/26/2019 03:00 to 2:10 4.84033 4.84031 4.84038 4.84110 4.84085 4.84304
8/26/2019 02:00 to 1:10 4.84600 4.84557 4.84793 4.84940 4.84900 4.85112
8/26/2019 01:00 to 0:10 4.85045 4.85288 4.84299 4.84729 4.85303 4.85694
8/26/2019 00:00 to 23:10 4.85809 4.85959 4.85817 4.85994 4.85739 4.86081
8/25/2019 23:00 to 22:10 4.86365 4.86338 4.86131 4.86143 4.86218 4.86271
8/25/2019 22:00 to 21:10 4.86335 4.86398 4.86113 4.86291 4.85904 4.86318
8/25/2019 21:00 to 20:10 4.86415 4.85986 4.86034 4.86193 4.86098 4.86044
8/25/2019 20:00 to 19:10 4.86128 4.86261 4.85889 4.85737 4.85689 4.85630
8/25/2019 19:00 to 18:10 4.85204 4.84967 4.85151 4.84614 4.84741 4.84500
8/25/2019 18:00 to 17:10 4.83941 4.83994 4.83731 4.83582 4.83441 4.83408
8/25/2019 17:00 to 16:10 4.83285 4.83245 4.83262 4.83381 4.83354 4.83178
8/25/2019 16:00 to 15:10 4.82973 4.83064 4.82854 4.82891 4.82659 4.82725
8/25/2019 15:00 to 14:10 4.82656 4.82404 4.82604 4.82473 4.82401 4.82303
8/25/2019 14:00 to 13:10 4.82303 4.82253 4.82285 4.82246 4.82295 4.82226
8/25/2019 13:00 to 12:10 4.82330 4.82345 4.82387 4.82414 4.82431 4.82416
8/25/2019 12:00 to 11:10 4.82475 4.82463 4.82448 4.82483 4.82495 4.82513
8/25/2019 11:00 to 10:10 4.82537 4.82540 4.82663 4.82678 4.82651 4.82629
8/25/2019 10:00 to 9:10 4.82750 4.82809 4.82765 4.82807 4.82849 4.82901
8/25/2019 09:00 to 8:10 4.82866 4.82861 4.82930 4.82950 4.82839 4.82841
8/25/2019 08:00 to 7:10 4.82740 4.82592 4.82663 4.82676 4.82819 4.82926
8/25/2019 07:00 to 6:10 4.82950 4.82898 4.82938 4.82886 4.82884 4.83010
8/25/2019 06:00 to 5:10 4.83104 4.83186 4.83403 4.83381 4.83458 4.83664
8/25/2019 05:00 to 4:10 4.83731 4.83537 4.83760 4.83822 4.83830 4.83641
8/25/2019 04:00 to 3:10 4.83741 4.83817 4.83738 4.83763 4.83770 4.83847
8/25/2019 03:00 to 2:10 4.83755 4.83959 4.84046 4.83956 4.83979 4.83669
8/25/2019 02:00 to 1:10 4.83765 4.83954 4.83624 4.83570 4.83746 4.83989
8/25/2019 01:00 to 0:10 4.83907 4.83746 4.83842 4.83713 4.83949 4.83912

 

 

 

Salinity [psu]     6 entries per hour
Showing data from 8/26/2019 (22:50:00 Z) to 8/25/2019 (00:00:01 Z)
Previous Next [ Day | 3-Days | 7-Days ]
First Last
Prev [ Day | 3-Days | 7-Days ] Next
First Last

Start Time:     :
End Time:     :     
Time (in GMT) :00 :50 :40 :30 :20 :10
Previous Next [ Day | 3-Days | 7-Days ]
First Last
Prev [ Day | 3-Days | 7-Days ] Next
First Last


123 => good data
MM => data is determined as missing
-- => data not received/configured
Back to Top Back to Top
8/26/2019 23:00 to 22:10 -- 35.05 35.05 35.05 35.05 35.05
8/26/2019 22:00 to 21:10 35.05 35.05 35.05 35.05 35.05 35.05
8/26/2019 21:00 to 20:10 35.05 35.06 35.06 35.04 35.05 35.06
8/26/2019 20:00 to 19:10 35.05 35.05 35.05 35.05 35.05 35.05
8/26/2019 19:00 to 18:10 35.05 35.06 35.05 35.05 35.05 35.05
8/26/2019 18:00 to 17:10 35.05 35.05 35.05 35.06 35.06 35.05
8/26/2019 17:00 to 16:10 35.05 35.05 35.05 35.06 35.05 35.05
8/26/2019 16:00 to 15:10 35.05 35.05 35.05 35.05 35.05 35.05
8/26/2019 15:00 to 14:10 35.05 35.05 35.05 35.05 35.05 35.05
8/26/2019 14:00 to 13:10 35.05 35.05 35.05 35.05 35.05 35.05
8/26/2019 13:00 to 12:10 35.05 35.05 35.05 35.05 35.05 35.05
8/26/2019 12:00 to 11:10 35.05 35.05 35.05 35.05 35.05 35.05
8/26/2019 11:00 to 10:10 35.05 35.05 35.05 35.05 35.05 35.05
8/26/2019 10:00 to 9:10 35.05 35.05 35.05 35.05 35.05 35.05
8/26/2019 09:00 to 8:10 35.05 35.05 35.05 35.05 35.05 35.05
8/26/2019 08:00 to 7:10 35.05 35.05 35.05 35.05 35.05 35.05
8/26/2019 07:00 to 6:10 35.05 35.05 35.05 35.05 35.05 35.05
8/26/2019 06:00 to 5:10 35.05 35.05 35.05 35.05 35.05 35.05
8/26/2019 05:00 to 4:10 35.05 35.05 35.05 35.05 35.05 35.05
8/26/2019 04:00 to 3:10 35.05 35.05 35.05 35.05 35.05 35.05
8/26/2019 03:00 to 2:10 35.05 35.05 35.05 35.05 35.05 35.05
8/26/2019 02:00 to 1:10 35.05 35.05 35.05 35.05 35.05 35.05
8/26/2019 01:00 to 0:10 35.05 35.05 35.05 35.05 35.05 35.05
8/26/2019 00:00 to 23:10 35.05 35.05 35.05 35.05 35.05 35.05
8/25/2019 23:00 to 22:10 35.05 35.05 35.05 35.04 35.05 35.04
8/25/2019 22:00 to 21:10 35.05 35.05 35.04 35.05 35.05 35.05
8/25/2019 21:00 to 20:10 35.04 35.05 35.06 35.04 35.05 35.05
8/25/2019 20:00 to 19:10 35.04 35.05 35.05 35.05 35.04 35.05
8/25/2019 19:00 to 18:10 35.04 35.06 35.05 35.04 35.05 35.05
8/25/2019 18:00 to 17:10 35.03 35.05 35.05 35.04 35.05 35.04
8/25/2019 17:00 to 16:10 35.04 35.05 35.04 35.05 35.05 35.05
8/25/2019 16:00 to 15:10 35.05 35.04 35.04 35.04 35.05 35.04
8/25/2019 15:00 to 14:10 35.04 35.04 35.04 35.04 35.04 35.04
8/25/2019 14:00 to 13:10 35.04 35.04 35.04 35.04 35.04 35.04
8/25/2019 13:00 to 12:10 35.04 35.04 35.04 35.04 35.04 35.04
8/25/2019 12:00 to 11:10 35.04 35.04 35.04 35.04 35.04 35.04
8/25/2019 11:00 to 10:10 35.04 35.04 35.04 35.04 35.04 35.04
8/25/2019 10:00 to 9:10 35.04 35.04 35.04 35.04 35.04 35.04
8/25/2019 09:00 to 8:10 35.04 35.04 35.04 35.04 35.04 35.04
8/25/2019 08:00 to 7:10 35.04 35.04 35.04 35.04 35.04 35.04
8/25/2019 07:00 to 6:10 35.04 35.04 35.04 35.04 35.04 35.04
8/25/2019 06:00 to 5:10 35.04 35.04 35.04 35.04 35.04 35.04
8/25/2019 05:00 to 4:10 35.04 35.04 35.04 35.04 35.03 35.04
8/25/2019 04:00 to 3:10 35.03 35.03 35.03 35.03 35.03 35.03
8/25/2019 03:00 to 2:10 35.03 35.03 35.04 35.03 35.03 35.03
8/25/2019 02:00 to 1:10 35.03 35.03 35.03 35.03 35.03 35.03
8/25/2019 01:00 to 0:10 35.03 35.03 35.03 35.03 35.03 35.03